sensor_id;sensor_type;location;lat;lon;timestamp;P1;durP1;ratioP1;P2;durP2;ratioP2
3865;SDS011;1948;53.250;10.412;2023-02-12T00:01:25;26.10;;;11.17;;
3865;SDS011;1948;53.250;10.412;2023-02-12T00:03:54;21.47;;;9.50;;
3865;SDS011;1948;53.250;10.412;2023-02-12T00:06:25;17.43;;;8.47;;
3865;SDS011;1948;53.250;10.412;2023-02-12T00:08:53;22.07;;;9.30;;
3865;SDS011;1948;53.250;10.412;2023-02-12T00:11:28;18.30;;;8.00;;
3865;SDS011;1948;53.250;10.412;2023-02-12T00:14:03;17.13;;;7.70;;
3865;SDS011;1948;53.250;10.412;2023-02-12T00:16:30;14.13;;;7.20;;
3865;SDS011;1948;53.250;10.412;2023-02-12T00:18:58;15.97;;;7.40;;
3865;SDS011;1948;53.250;10.412;2023-02-12T00:21:26;13.37;;;6.80;;
3865;SDS011;1948;53.250;10.412;2023-02-12T00:23:56;19.67;;;9.27;;
3865;SDS011;1948;53.250;10.412;2023-02-12T00:26:25;9.20;;;7.07;;
3865;SDS011;1948;53.250;10.412;2023-02-12T00:28:53;9.03;;;5.57;;
3865;SDS011;1948;53.250;10.412;2023-02-12T00:31:23;13.33;;;6.37;;
3865;SDS011;1948;53.250;10.412;2023-02-12T00:33:53;12.07;;;7.50;;
3865;SDS011;1948;53.250;10.412;2023-02-12T00:36:22;6.80;;;5.80;;
3865;SDS011;1948;53.250;10.412;2023-02-12T00:38:52;5.53;;;5.10;;
3865;SDS011;1948;53.250;10.412;2023-02-12T00:41:20;9.47;;;5.37;;
3865;SDS011;1948;53.250;10.412;2023-02-12T00:43:48;9.23;;;5.53;;
3865;SDS011;1948;53.250;10.412;2023-02-12T00:46:17;7.67;;;5.70;;
3865;SDS011;1948;53.250;10.412;2023-02-12T00:48:44;10.50;;;5.37;;
3865;SDS011;1948;53.250;10.412;2023-02-12T00:51:14;10.63;;;5.33;;
3865;SDS011;1948;53.250;10.412;2023-02-12T00:53:43;5.03;;;4.70;;
3865;SDS011;1948;53.250;10.412;2023-02-12T00:56:12;4.83;;;4.53;;
3865;SDS011;1948;53.250;10.412;2023-02-12T00:58:42;5.20;;;4.80;;
3865;SDS011;1948;53.250;10.412;2023-02-12T01:01:09;3.83;;;3.53;;
3865;SDS011;1948;53.250;10.412;2023-02-12T01:03:38;5.60;;;4.30;;
3865;SDS011;1948;53.250;10.412;2023-02-12T01:06:05;7.53;;;4.03;;
3865;SDS011;1948;53.250;10.412;2023-02-12T01:08:33;9.30;;;4.80;;
3865;SDS011;1948;53.250;10.412;2023-02-12T01:11:00;5.30;;;4.80;;
3865;SDS011;1948;53.250;10.412;2023-02-12T01:13:32;10.30;;;5.17;;
3865;SDS011;1948;53.250;10.412;2023-02-12T01:18:36;11.13;;;5.00;;
3865;SDS011;1948;53.250;10.412;2023-02-12T01:21:10;8.70;;;5.07;;
3865;SDS011;1948;53.250;10.412;2023-02-12T01:23:40;8.27;;;4.87;;
3865;SDS011;1948;53.250;10.412;2023-02-12T01:26:08;8.40;;;4.70;;
3865;SDS011;1948;53.250;10.412;2023-02-12T01:28:39;8.70;;;4.40;;
3865;SDS011;1948;53.250;10.412;2023-02-12T01:31:13;5.17;;;4.77;;
3865;SDS011;1948;53.250;10.412;2023-02-12T01:33:47;4.73;;;4.30;;
3865;SDS011;1948;53.250;10.412;2023-02-12T01:36:15;5.90;;;4.40;;
3865;SDS011;1948;53.250;10.412;2023-02-12T01:38:42;4.03;;;3.93;;
3865;SDS011;1948;53.250;10.412;2023-02-12T01:41:11;5.20;;;4.43;;
3865;SDS011;1948;53.250;10.412;2023-02-12T01:43:44;4.77;;;4.47;;
3865;SDS011;1948;53.250;10.412;2023-02-12T01:46:33;5.27;;;4.90;;
3865;SDS011;1948;53.250;10.412;2023-02-12T01:49:01;5.00;;;4.60;;
3865;SDS011;1948;53.250;10.412;2023-02-12T01:51:30;5.43;;;4.87;;
3865;SDS011;1948;53.250;10.412;2023-02-12T01:54:04;9.20;;;5.70;;
3865;SDS011;1948;53.250;10.412;2023-02-12T01:56:36;5.20;;;4.80;;
3865;SDS011;1948;53.250;10.412;2023-02-12T01:59:04;5.37;;;4.97;;
3865;SDS011;1948;53.250;10.412;2023-02-12T02:01:31;7.23;;;4.80;;
3865;SDS011;1948;53.250;10.412;2023-02-12T02:04:07;5.13;;;4.27;;
3865;SDS011;1948;53.250;10.412;2023-02-12T02:06:56;4.43;;;4.27;;
3865;SDS011;1948;53.250;10.412;2023-02-12T02:09:26;5.50;;;5.10;;
3865;SDS011;1948;53.250;10.412;2023-02-12T02:11:59;4.47;;;4.17;;
3865;SDS011;1948;53.250;10.412;2023-02-12T02:14:48;4.53;;;4.13;;
3865;SDS011;1948;53.250;10.412;2023-02-12T02:34:39;5.60;;;5.10;;
3865;SDS011;1948;53.250;10.412;2023-02-12T02:37:38;4.60;;;4.30;;
3865;SDS011;1948;53.250;10.412;2023-02-12T02:40:30;5.03;;;4.80;;
3865;SDS011;1948;53.250;10.412;2023-02-12T02:43:35;4.33;;;4.03;;
3865;SDS011;1948;53.250;10.412;2023-02-12T02:46:14;4.67;;;4.37;;
3865;SDS011;1948;53.250;10.412;2023-02-12T02:48:45;5.43;;;5.20;;
3865;SDS011;1948;53.250;10.412;2023-02-12T02:51:22;4.27;;;4.07;;
3865;SDS011;1948;53.250;10.412;2023-02-12T02:54:12;6.90;;;4.53;;
3865;SDS011;1948;53.250;10.412;2023-02-12T02:57:06;5.53;;;5.20;;
3865;SDS011;1948;53.250;10.412;2023-02-12T02:59:47;5.97;;;4.97;;
3865;SDS011;1948;53.250;10.412;2023-02-12T03:02:34;5.37;;;5.00;;
3865;SDS011;1948;53.250;10.412;2023-02-12T03:05:15;6.10;;;5.60;;
3865;SDS011;1948;53.250;10.412;2023-02-12T03:08:07;12.20;;;6.50;;
3865;SDS011;1948;53.250;10.412;2023-02-12T03:10:56;5.50;;;5.00;;
3865;SDS011;1948;53.250;10.412;2023-02-12T03:13:42;6.27;;;5.27;;
3865;SDS011;1948;53.250;10.412;2023-02-12T03:16:22;8.20;;;6.30;;
3865;SDS011;1948;53.250;10.412;2023-02-12T03:19:00;6.67;;;6.07;;
3865;SDS011;1948;53.250;10.412;2023-02-12T03:21:38;5.80;;;5.30;;
3865;SDS011;1948;53.250;10.412;2023-02-12T03:24:15;10.80;;;6.50;;
3865;SDS011;1948;53.250;10.412;2023-02-12T03:27:02;8.07;;;6.43;;
3865;SDS011;1948;53.250;10.412;2023-02-12T03:29:38;6.50;;;5.90;;
3865;SDS011;1948;53.250;10.412;2023-02-12T03:32:28;13.50;;;6.77;;
3865;SDS011;1948;53.250;10.412;2023-02-12T03:48:24;8.60;;;7.00;;
3865;SDS011;1948;53.250;10.412;2023-02-12T03:51:03;6.90;;;6.03;;
3865;SDS011;1948;53.250;10.412;2023-02-12T03:53:42;9.30;;;6.80;;
3865;SDS011;1948;53.250;10.412;2023-02-12T03:56:21;7.77;;;5.90;;
3865;SDS011;1948;53.250;10.412;2023-02-12T03:59:09;7.43;;;6.67;;
3865;SDS011;1948;53.250;10.412;2023-02-12T04:01:37;7.60;;;6.70;;
3865;SDS011;1948;53.250;10.412;2023-02-12T04:04:05;7.20;;;6.30;;
3865;SDS011;1948;53.250;10.412;2023-02-12T04:06:36;8.60;;;6.57;;
3865;SDS011;1948;53.250;10.412;2023-02-12T04:09:04;9.70;;;6.80;;
3865;SDS011;1948;53.250;10.412;2023-02-12T04:11:40;7.63;;;6.83;;
3865;SDS011;1948;53.250;10.412;2023-02-12T04:14:28;15.00;;;7.37;;
3865;SDS011;1948;53.250;10.412;2023-02-12T04:20:26;8.53;;;7.17;;
3865;SDS011;1948;53.250;10.412;2023-02-12T04:23:46;11.53;;;6.67;;
3865;SDS011;1948;53.250;10.412;2023-02-12T04:29:50;9.10;;;5.60;;
3865;SDS011;1948;53.250;10.412;2023-02-12T04:32:51;9.17;;;7.10;;
3865;SDS011;1948;53.250;10.412;2023-02-12T04:35:25;6.20;;;5.70;;
3865;SDS011;1948;53.250;10.412;2023-02-12T04:38:30;6.83;;;5.97;;
3865;SDS011;1948;53.250;10.412;2023-02-12T04:41:23;6.43;;;5.83;;
3865;SDS011;1948;53.250;10.412;2023-02-12T04:43:53;6.97;;;5.40;;
3865;SDS011;1948;53.250;10.412;2023-02-12T04:46:20;5.87;;;5.27;;
3865;SDS011;1948;53.250;10.412;2023-02-12T04:48:54;6.80;;;4.73;;
3865;SDS011;1948;53.250;10.412;2023-02-12T04:51:23;6.37;;;4.80;;
3865;SDS011;1948;53.250;10.412;2023-02-12T04:53:53;6.57;;;4.60;;
3865;SDS011;1948;53.250;10.412;2023-02-12T04:56:22;6.97;;;5.03;;
3865;SDS011;1948;53.250;10.412;2023-02-12T04:58:52;10.13;;;4.80;;
3865;SDS011;1948;53.250;10.412;2023-02-12T05:01:23;5.20;;;4.50;;
3865;SDS011;1948;53.250;10.412;2023-02-12T05:03:50;4.93;;;3.83;;
3865;SDS011;1948;53.250;10.412;2023-02-12T05:06:20;4.50;;;4.20;;
3865;SDS011;1948;53.250;10.412;2023-02-12T05:08:49;6.10;;;4.10;;
3865;SDS011;1948;53.250;10.412;2023-02-12T05:11:18;6.43;;;3.93;;
3865;SDS011;1948;53.250;10.412;2023-02-12T05:13:49;4.37;;;3.97;;
3865;SDS011;1948;53.250;10.412;2023-02-12T05:16:19;6.17;;;4.50;;
3865;SDS011;1948;53.250;10.412;2023-02-12T05:18:47;5.27;;;4.87;;
3865;SDS011;1948;53.250;10.412;2023-02-12T05:21:19;5.27;;;4.80;;
3865;SDS011;1948;53.250;10.412;2023-02-12T05:23:49;9.43;;;5.63;;
3865;SDS011;1948;53.250;10.412;2023-02-12T05:26:18;6.07;;;4.87;;
3865;SDS011;1948;53.250;10.412;2023-02-12T05:28:46;5.97;;;5.07;;
3865;SDS011;1948;53.250;10.412;2023-02-12T05:31:14;6.67;;;4.97;;
3865;SDS011;1948;53.250;10.412;2023-02-12T05:33:47;4.90;;;4.50;;
3865;SDS011;1948;53.250;10.412;2023-02-12T05:36:16;4.77;;;4.43;;
3865;SDS011;1948;53.250;10.412;2023-02-12T05:38:51;7.87;;;4.80;;
3865;SDS011;1948;53.250;10.412;2023-02-12T05:41:23;6.40;;;5.30;;
3865;SDS011;1948;53.250;10.412;2023-02-12T05:43:50;5.90;;;4.97;;
3865;SDS011;1948;53.250;10.412;2023-02-12T05:46:20;5.33;;;4.37;;
3865;SDS011;1948;53.250;10.412;2023-02-12T05:48:48;5.23;;;4.83;;
3865;SDS011;1948;53.250;10.412;2023-02-12T05:51:18;4.90;;;4.50;;
3865;SDS011;1948;53.250;10.412;2023-02-12T05:53:50;5.00;;;4.57;;
3865;SDS011;1948;53.250;10.412;2023-02-12T05:56:23;5.30;;;4.90;;
3865;SDS011;1948;53.250;10.412;2023-02-12T05:59:03;7.47;;;4.80;;
3865;SDS011;1948;53.250;10.412;2023-02-12T06:01:36;6.27;;;4.40;;
3865;SDS011;1948;53.250;10.412;2023-02-12T06:04:07;4.93;;;4.53;;
3865;SDS011;1948;53.250;10.412;2023-02-12T06:06:42;4.80;;;4.40;;
3865;SDS011;1948;53.250;10.412;2023-02-12T06:09:10;5.97;;;4.67;;
3865;SDS011;1948;53.250;10.412;2023-02-12T06:11:40;4.10;;;3.70;;
3865;SDS011;1948;53.250;10.412;2023-02-12T06:14:12;4.13;;;3.80;;
3865;SDS011;1948;53.250;10.412;2023-02-12T06:16:46;4.47;;;4.17;;
3865;SDS011;1948;53.250;10.412;2023-02-12T06:19:18;4.87;;;4.47;;
3865;SDS011;1948;53.250;10.412;2023-02-12T06:21:50;4.57;;;4.27;;
3865;SDS011;1948;53.250;10.412;2023-02-12T06:24:19;4.20;;;4.00;;
3865;SDS011;1948;53.250;10.412;2023-02-12T06:26:53;4.63;;;4.20;;
3865;SDS011;1948;53.250;10.412;2023-02-12T06:29:23;5.00;;;4.00;;
3865;SDS011;1948;53.250;10.412;2023-02-12T06:31:53;3.73;;;3.43;;
3865;SDS011;1948;53.250;10.412;2023-02-12T06:34:21;9.30;;;3.83;;
3865;SDS011;1948;53.250;10.412;2023-02-12T06:36:50;5.00;;;3.90;;
3865;SDS011;1948;53.250;10.412;2023-02-12T06:39:17;4.20;;;4.00;;
3865;SDS011;1948;53.250;10.412;2023-02-12T06:41:44;9.00;;;4.90;;
3865;SDS011;1948;53.250;10.412;2023-02-12T06:44:11;4.90;;;4.37;;
3865;SDS011;1948;53.250;10.412;2023-02-12T06:46:38;10.63;;;5.77;;
3865;SDS011;1948;53.250;10.412;2023-02-12T06:49:16;8.67;;;4.83;;
3865;SDS011;1948;53.250;10.412;2023-02-12T06:51:49;9.77;;;5.47;;
3865;SDS011;1948;53.250;10.412;2023-02-12T06:54:16;12.77;;;5.50;;
3865;SDS011;1948;53.250;10.412;2023-02-12T06:56:43;11.27;;;5.47;;
3865;SDS011;1948;53.250;10.412;2023-02-12T06:59:13;14.17;;;5.97;;
3865;SDS011;1948;53.250;10.412;2023-02-12T07:01:46;13.10;;;5.33;;
3865;SDS011;1948;53.250;10.412;2023-02-12T07:04:13;10.80;;;6.20;;
3865;SDS011;1948;53.250;10.412;2023-02-12T07:06:43;7.97;;;5.10;;
3865;SDS011;1948;53.250;10.412;2023-02-12T07:09:10;13.03;;;6.00;;
3865;SDS011;1948;53.250;10.412;2023-02-12T07:11:39;15.80;;;6.40;;
3865;SDS011;1948;53.250;10.412;2023-02-12T07:14:15;18.57;;;7.77;;
3865;SDS011;1948;53.250;10.412;2023-02-12T07:16:45;22.73;;;7.20;;
3865;SDS011;1948;53.250;10.412;2023-02-12T07:19:12;20.30;;;7.47;;
3865;SDS011;1948;53.250;10.412;2023-02-12T07:21:42;18.67;;;6.60;;
3865;SDS011;1948;53.250;10.412;2023-02-12T07:24:10;20.43;;;7.40;;
3865;SDS011;1948;53.250;10.412;2023-02-12T07:26:40;18.50;;;7.10;;
3865;SDS011;1948;53.250;10.412;2023-02-12T07:29:07;17.63;;;7.63;;
3865;SDS011;1948;53.250;10.412;2023-02-12T07:31:34;26.67;;;7.67;;
3865;SDS011;1948;53.250;10.412;2023-02-12T07:34:01;38.90;;;8.40;;
3865;SDS011;1948;53.250;10.412;2023-02-12T07:36:30;21.43;;;8.80;;
3865;SDS011;1948;53.250;10.412;2023-02-12T07:38:58;29.27;;;9.30;;
3865;SDS011;1948;53.250;10.412;2023-02-12T07:41:27;27.20;;;8.83;;
3865;SDS011;1948;53.250;10.412;2023-02-12T07:43:58;36.03;;;9.17;;
3865;SDS011;1948;53.250;10.412;2023-02-12T07:46:34;26.80;;;8.90;;
3865;SDS011;1948;53.250;10.412;2023-02-12T07:49:06;37.30;;;8.10;;
3865;SDS011;1948;53.250;10.412;2023-02-12T07:51:38;23.60;;;8.70;;
3865;SDS011;1948;53.250;10.412;2023-02-12T07:54:08;29.77;;;8.57;;
3865;SDS011;1948;53.250;10.412;2023-02-12T07:56:40;26.70;;;9.10;;
3865;SDS011;1948;53.250;10.412;2023-02-12T07:59:10;26.70;;;9.17;;
3865;SDS011;1948;53.250;10.412;2023-02-12T08:01:44;24.83;;;9.30;;
3865;SDS011;1948;53.250;10.412;2023-02-12T08:04:18;23.73;;;8.80;;
3865;SDS011;1948;53.250;10.412;2023-02-12T08:06:49;22.33;;;8.43;;
3865;SDS011;1948;53.250;10.412;2023-02-12T08:09:21;23.80;;;7.80;;
3865;SDS011;1948;53.250;10.412;2023-02-12T08:11:53;22.53;;;7.97;;
3865;SDS011;1948;53.250;10.412;2023-02-12T08:14:22;19.53;;;8.60;;
3865;SDS011;1948;53.250;10.412;2023-02-12T08:16:49;25.60;;;8.33;;
3865;SDS011;1948;53.250;10.412;2023-02-12T08:19:17;21.10;;;8.63;;
3865;SDS011;1948;53.250;10.412;2023-02-12T08:21:52;17.97;;;8.83;;
3865;SDS011;1948;53.250;10.412;2023-02-12T08:24:23;18.63;;;8.30;;
3865;SDS011;1948;53.250;10.412;2023-02-12T08:26:51;19.30;;;8.53;;
3865;SDS011;1948;53.250;10.412;2023-02-12T08:29:19;16.20;;;8.47;;
3865;SDS011;1948;53.250;10.412;2023-02-12T08:31:56;18.80;;;9.17;;
3865;SDS011;1948;53.250;10.412;2023-02-12T08:34:28;16.97;;;8.93;;
3865;SDS011;1948;53.250;10.412;2023-02-12T08:37:02;18.20;;;8.70;;
3865;SDS011;1948;53.250;10.412;2023-02-12T08:39:31;17.70;;;9.27;;
3865;SDS011;1948;53.250;10.412;2023-02-12T08:42:01;18.40;;;9.40;;
3865;SDS011;1948;53.250;10.412;2023-02-12T08:44:33;20.20;;;9.23;;
3865;SDS011;1948;53.250;10.412;2023-02-12T08:47:00;20.33;;;9.67;;
3865;SDS011;1948;53.250;10.412;2023-02-12T08:49:31;20.03;;;9.17;;
3865;SDS011;1948;53.250;10.412;2023-02-12T08:52:03;17.80;;;9.60;;
3865;SDS011;1948;53.250;10.412;2023-02-12T08:54:36;19.27;;;10.40;;
3865;SDS011;1948;53.250;10.412;2023-02-12T08:57:05;17.10;;;9.83;;
3865;SDS011;1948;53.250;10.412;2023-02-12T08:59:32;16.53;;;9.53;;
3865;SDS011;1948;53.250;10.412;2023-02-12T09:01:59;16.80;;;9.47;;
3865;SDS011;1948;53.250;10.412;2023-02-12T09:04:28;17.13;;;10.40;;
3865;SDS011;1948;53.250;10.412;2023-02-12T09:06:55;21.17;;;11.30;;
3865;SDS011;1948;53.250;10.412;2023-02-12T09:09:22;19.27;;;9.90;;
3865;SDS011;1948;53.250;10.412;2023-02-12T09:11:49;20.30;;;10.93;;
3865;SDS011;1948;53.250;10.412;2023-02-12T09:14:17;16.37;;;10.03;;
3865;SDS011;1948;53.250;10.412;2023-02-12T09:16:49;20.23;;;10.13;;
3865;SDS011;1948;53.250;10.412;2023-02-12T09:19:20;17.63;;;10.33;;
3865;SDS011;1948;53.250;10.412;2023-02-12T09:21:51;20.50;;;11.27;;
3865;SDS011;1948;53.250;10.412;2023-02-12T09:24:25;15.90;;;10.30;;
3865;SDS011;1948;53.250;10.412;2023-02-12T09:26:55;16.97;;;10.70;;
3865;SDS011;1948;53.250;10.412;2023-02-12T09:29:22;16.90;;;10.63;;
3865;SDS011;1948;53.250;10.412;2023-02-12T09:31:49;28.87;;;11.27;;
3865;SDS011;1948;53.250;10.412;2023-02-12T09:34:16;16.43;;;10.07;;
3865;SDS011;1948;53.250;10.412;2023-02-12T09:36:45;19.03;;;10.60;;
3865;SDS011;1948;53.250;10.412;2023-02-12T09:39:12;19.60;;;11.37;;
3865;SDS011;1948;53.250;10.412;2023-02-12T09:44:59;18.00;;;10.67;;
3865;SDS011;1948;53.250;10.412;2023-02-12T09:47:45;19.20;;;10.63;;
3865;SDS011;1948;53.250;10.412;2023-02-12T09:53:16;17.30;;;10.30;;
3865;SDS011;1948;53.250;10.412;2023-02-12T09:55:49;20.53;;;10.50;;
3865;SDS011;1948;53.250;10.412;2023-02-12T09:58:37;18.60;;;10.20;;
3865;SDS011;1948;53.250;10.412;2023-02-12T10:01:25;15.40;;;9.83;;
3865;SDS011;1948;53.250;10.412;2023-02-12T10:03:54;17.33;;;9.70;;
3865;SDS011;1948;53.250;10.412;2023-02-12T10:06:29;20.40;;;10.77;;
3865;SDS011;1948;53.250;10.412;2023-02-12T10:14:55;15.53;;;9.97;;
3865;SDS011;1948;53.250;10.412;2023-02-12T10:26:21;12.50;;;9.83;;
3865;SDS011;1948;53.250;10.412;2023-02-12T10:29:16;17.00;;;10.30;;
3865;SDS011;1948;53.250;10.412;2023-02-12T10:32:01;12.77;;;9.80;;
3865;SDS011;1948;53.250;10.412;2023-02-12T10:34:55;18.70;;;8.97;;
3865;SDS011;1948;53.250;10.412;2023-02-12T10:40:27;10.23;;;8.03;;
3865;SDS011;1948;53.250;10.412;2023-02-12T10:42:58;11.60;;;7.30;;
3865;SDS011;1948;53.250;10.412;2023-02-12T10:45:31;9.87;;;7.47;;
3865;SDS011;1948;53.250;10.412;2023-02-12T10:50:46;9.27;;;7.07;;
3865;SDS011;1948;53.250;10.412;2023-02-12T10:53:35;10.60;;;7.10;;
3865;SDS011;1948;53.250;10.412;2023-02-12T10:58:57;10.90;;;7.37;;
3865;SDS011;1948;53.250;10.412;2023-02-12T11:01:33;10.33;;;7.03;;
3865;SDS011;1948;53.250;10.412;2023-02-12T11:04:46;7.23;;;6.63;;
3865;SDS011;1948;53.250;10.412;2023-02-12T11:06:57;10.40;;;5.93;;
3865;SDS011;1948;53.250;10.412;2023-02-12T11:09:41;6.20;;;5.60;;
3865;SDS011;1948;53.250;10.412;2023-02-12T11:15:18;8.30;;;6.60;;
3865;SDS011;1948;53.250;10.412;2023-02-12T11:17:59;6.70;;;6.10;;
3865;SDS011;1948;53.250;10.412;2023-02-12T11:20:40;5.17;;;4.77;;
3865;SDS011;1948;53.250;10.412;2023-02-12T11:23:28;5.50;;;4.87;;
3865;SDS011;1948;53.250;10.412;2023-02-12T11:26:05;6.20;;;4.77;;
3865;SDS011;1948;53.250;10.412;2023-02-12T11:31:21;6.00;;;5.53;;
3865;SDS011;1948;53.250;10.412;2023-02-12T11:36:46;5.13;;;4.77;;
3865;SDS011;1948;53.250;10.412;2023-02-12T11:44:41;4.63;;;4.23;;
3865;SDS011;1948;53.250;10.412;2023-02-12T11:47:18;4.20;;;4.00;;
3865;SDS011;1948;53.250;10.412;2023-02-12T11:49:50;9.07;;;4.17;;
3865;SDS011;1948;53.250;10.412;2023-02-12T11:52:31;5.13;;;4.73;;
3865;SDS011;1948;53.250;10.412;2023-02-12T11:55:04;3.60;;;3.40;;
3865;SDS011;1948;53.250;10.412;2023-02-12T11:57:48;4.23;;;4.00;;
3865;SDS011;1948;53.250;10.412;2023-02-12T12:00:21;3.50;;;3.40;;
3865;SDS011;1948;53.250;10.412;2023-02-12T12:09:15;4.07;;;3.80;;
3865;SDS011;1948;53.250;10.412;2023-02-12T12:12:11;3.10;;;3.00;;
3865;SDS011;1948;53.250;10.412;2023-02-12T12:17:53;2.87;;;2.50;;
3865;SDS011;1948;53.250;10.412;2023-02-12T12:20:48;5.60;;;2.60;;
3865;SDS011;1948;53.250;10.412;2023-02-12T12:23:34;2.30;;;2.23;;
3865;SDS011;1948;53.250;10.412;2023-02-12T12:26:32;2.47;;;2.47;;
3865;SDS011;1948;53.250;10.412;2023-02-12T12:29:10;2.40;;;2.30;;
3865;SDS011;1948;53.250;10.412;2023-02-12T12:31:58;2.47;;;2.37;;
3865;SDS011;1948;53.250;10.412;2023-02-12T12:34:30;2.77;;;2.67;;
3865;SDS011;1948;53.250;10.412;2023-02-12T12:37:17;2.23;;;2.13;;
3865;SDS011;1948;53.250;10.412;2023-02-12T12:40:41;2.90;;;2.70;;
3865;SDS011;1948;53.250;10.412;2023-02-12T12:55:02;2.20;;;2.00;;
3865;SDS011;1948;53.250;10.412;2023-02-12T12:57:57;2.47;;;2.37;;
3865;SDS011;1948;53.250;10.412;2023-02-12T13:03:40;7.37;;;3.03;;
3865;SDS011;1948;53.250;10.412;2023-02-12T13:18:23;3.20;;;3.10;;
3865;SDS011;1948;53.250;10.412;2023-02-12T13:27:12;4.80;;;3.80;;
3865;SDS011;1948;53.250;10.412;2023-02-12T13:29:53;4.07;;;3.77;;
3865;SDS011;1948;53.250;10.412;2023-02-12T13:35:05;3.60;;;3.50;;
3865;SDS011;1948;53.250;10.412;2023-02-12T13:37:40;5.20;;;4.17;;
3865;SDS011;1948;53.250;10.412;2023-02-12T13:40:19;3.73;;;3.50;;
3865;SDS011;1948;53.250;10.412;2023-02-12T13:42:57;5.20;;;4.70;;
3865;SDS011;1948;53.250;10.412;2023-02-12T13:45:46;5.10;;;4.70;;
3865;SDS011;1948;53.250;10.412;2023-02-12T13:56:41;4.43;;;4.00;;
3865;SDS011;1948;53.250;10.412;2023-02-12T14:04:31;4.97;;;4.67;;
3865;SDS011;1948;53.250;10.412;2023-02-12T14:10:48;4.63;;;4.40;;
3865;SDS011;1948;53.250;10.412;2023-02-12T14:13:15;4.33;;;4.13;;
3865;SDS011;1948;53.250;10.412;2023-02-12T14:15:48;4.73;;;4.53;;
3865;SDS011;1948;53.250;10.412;2023-02-12T14:18:31;5.30;;;4.93;;
3865;SDS011;1948;53.250;10.412;2023-02-12T14:23:37;4.67;;;4.47;;
3865;SDS011;1948;53.250;10.412;2023-02-12T14:26:10;4.83;;;4.53;;
3865;SDS011;1948;53.250;10.412;2023-02-12T14:29:02;5.17;;;4.83;;
3865;SDS011;1948;53.250;10.412;2023-02-12T14:31:42;4.53;;;4.13;;
3865;SDS011;1948;53.250;10.412;2023-02-12T14:36:40;4.53;;;4.23;;
3865;SDS011;1948;53.250;10.412;2023-02-12T14:41:53;4.93;;;4.60;;
3865;SDS011;1948;53.250;10.412;2023-02-12T14:44:45;9.23;;;7.60;;
3865;SDS011;1948;53.250;10.412;2023-02-12T14:49:58;4.70;;;4.50;;
3865;SDS011;1948;53.250;10.412;2023-02-12T14:52:38;4.90;;;4.50;;
3865;SDS011;1948;53.250;10.412;2023-02-12T14:55:17;5.53;;;5.03;;
3865;SDS011;1948;53.250;10.412;2023-02-12T14:57:49;5.87;;;5.47;;
3865;SDS011;1948;53.250;10.412;2023-02-12T15:00:26;4.73;;;4.53;;
3865;SDS011;1948;53.250;10.412;2023-02-12T15:03:12;5.70;;;5.20;;
3865;SDS011;1948;53.250;10.412;2023-02-12T15:06:00;7.13;;;6.13;;
3865;SDS011;1948;53.250;10.412;2023-02-12T15:14:26;5.17;;;4.87;;
3865;SDS011;1948;53.250;10.412;2023-02-12T15:17:07;5.67;;;5.27;;
3865;SDS011;1948;53.250;10.412;2023-02-12T15:22:34;6.27;;;5.77;;
3865;SDS011;1948;53.250;10.412;2023-02-12T15:27:59;7.27;;;6.67;;
3865;SDS011;1948;53.250;10.412;2023-02-12T15:30:45;6.50;;;6.10;;
3865;SDS011;1948;53.250;10.412;2023-02-12T15:33:20;7.00;;;6.30;;
3865;SDS011;1948;53.250;10.412;2023-02-12T15:35:55;6.60;;;5.87;;
3865;SDS011;1948;53.250;10.412;2023-02-12T15:38:28;5.90;;;5.50;;
3865;SDS011;1948;53.250;10.412;2023-02-12T15:41:07;6.00;;;5.60;;
3865;SDS011;1948;53.250;10.412;2023-02-12T15:43:39;4.93;;;4.73;;
3865;SDS011;1948;53.250;10.412;2023-02-12T15:46:14;5.30;;;4.90;;
3865;SDS011;1948;53.250;10.412;2023-02-12T15:48:43;4.87;;;4.77;;
3865;SDS011;1948;53.250;10.412;2023-02-12T15:51:19;4.87;;;4.67;;
3865;SDS011;1948;53.250;10.412;2023-02-12T15:54:03;4.80;;;4.50;;
3865;SDS011;1948;53.250;10.412;2023-02-12T15:56:32;4.80;;;4.50;;
3865;SDS011;1948;53.250;10.412;2023-02-12T15:59:14;3.77;;;3.67;;
3865;SDS011;1948;53.250;10.412;2023-02-12T16:01:57;3.20;;;3.10;;
3865;SDS011;1948;53.250;10.412;2023-02-12T16:04:32;2.77;;;2.70;;
3865;SDS011;1948;53.250;10.412;2023-02-12T16:07:08;2.70;;;2.60;;
3865;SDS011;1948;53.250;10.412;2023-02-12T16:09:38;2.83;;;2.83;;
3865;SDS011;1948;53.250;10.412;2023-02-12T16:12:11;3.03;;;2.93;;
3865;SDS011;1948;53.250;10.412;2023-02-12T16:14:52;2.30;;;2.30;;
3865;SDS011;1948;53.250;10.412;2023-02-12T16:19:52;2.90;;;2.80;;
3865;SDS011;1948;53.250;10.412;2023-02-12T16:22:27;3.17;;;2.97;;
3865;SDS011;1948;53.250;10.412;2023-02-12T16:24:59;3.07;;;2.97;;
3865;SDS011;1948;53.250;10.412;2023-02-12T16:27:32;2.37;;;2.37;;
3865;SDS011;1948;53.250;10.412;2023-02-12T16:30:04;2.97;;;2.67;;
3865;SDS011;1948;53.250;10.412;2023-02-12T16:32:50;2.33;;;2.33;;
3865;SDS011;1948;53.250;10.412;2023-02-12T16:40:23;1.93;;;1.93;;
3865;SDS011;1948;53.250;10.412;2023-02-12T16:42:54;2.20;;;2.20;;
3865;SDS011;1948;53.250;10.412;2023-02-12T16:47:54;1.97;;;1.97;;
3865;SDS011;1948;53.250;10.412;2023-02-12T16:50:34;1.90;;;1.90;;
3865;SDS011;1948;53.250;10.412;2023-02-12T16:53:06;1.97;;;1.97;;
3865;SDS011;1948;53.250;10.412;2023-02-12T16:55:57;2.00;;;2.00;;
3865;SDS011;1948;53.250;10.412;2023-02-12T16:58:27;2.10;;;2.10;;
3865;SDS011;1948;53.250;10.412;2023-02-12T17:00:57;2.43;;;2.43;;
3865;SDS011;1948;53.250;10.412;2023-02-12T17:03:32;2.20;;;2.20;;
3865;SDS011;1948;53.250;10.412;2023-02-12T17:06:02;2.00;;;1.90;;
3865;SDS011;1948;53.250;10.412;2023-02-12T17:08:29;1.90;;;1.90;;
3865;SDS011;1948;53.250;10.412;2023-02-12T17:10:59;2.23;;;2.00;;
3865;SDS011;1948;53.250;10.412;2023-02-12T17:13:26;2.57;;;1.93;;
3865;SDS011;1948;53.250;10.412;2023-02-12T17:15:54;1.60;;;1.50;;
3865;SDS011;1948;53.250;10.412;2023-02-12T17:18:31;1.80;;;1.80;;
3865;SDS011;1948;53.250;10.412;2023-02-12T17:21:02;2.23;;;2.13;;
3865;SDS011;1948;53.250;10.412;2023-02-12T17:23:34;2.40;;;2.40;;
3865;SDS011;1948;53.250;10.412;2023-02-12T17:26:06;2.30;;;2.30;;
3865;SDS011;1948;53.250;10.412;2023-02-12T17:28:34;2.47;;;2.37;;
3865;SDS011;1948;53.250;10.412;2023-02-12T17:31:02;2.60;;;2.47;;
3865;SDS011;1948;53.250;10.412;2023-02-12T17:33:31;2.60;;;2.50;;
3865;SDS011;1948;53.250;10.412;2023-02-12T17:35:58;2.57;;;2.57;;
3865;SDS011;1948;53.250;10.412;2023-02-12T17:38:25;2.57;;;2.57;;
3865;SDS011;1948;53.250;10.412;2023-02-12T17:40:53;2.80;;;2.70;;
3865;SDS011;1948;53.250;10.412;2023-02-12T17:43:23;2.80;;;2.80;;
3865;SDS011;1948;53.250;10.412;2023-02-12T17:45:53;3.13;;;3.13;;
3865;SDS011;1948;53.250;10.412;2023-02-12T17:48:20;3.30;;;3.30;;
3865;SDS011;1948;53.250;10.412;2023-02-12T17:50:53;3.10;;;3.00;;
3865;SDS011;1948;53.250;10.412;2023-02-12T17:53:30;3.87;;;3.57;;
3865;SDS011;1948;53.250;10.412;2023-02-12T17:55:57;3.70;;;3.60;;
3865;SDS011;1948;53.250;10.412;2023-02-12T17:58:28;5.50;;;3.53;;
3865;SDS011;1948;53.250;10.412;2023-02-12T18:00:55;3.80;;;3.70;;
3865;SDS011;1948;53.250;10.412;2023-02-12T18:03:22;3.70;;;3.60;;
3865;SDS011;1948;53.250;10.412;2023-02-12T18:05:49;4.67;;;4.43;;
3865;SDS011;1948;53.250;10.412;2023-02-12T18:08:16;4.30;;;4.20;;
3865;SDS011;1948;53.250;10.412;2023-02-12T18:10:46;4.10;;;3.80;;
3865;SDS011;1948;53.250;10.412;2023-02-12T18:13:13;4.63;;;4.40;;
3865;SDS011;1948;53.250;10.412;2023-02-12T18:15:44;4.87;;;4.50;;
3865;SDS011;1948;53.250;10.412;2023-02-12T18:18:11;15.20;;;4.60;;
3865;SDS011;1948;53.250;10.412;2023-02-12T18:20:39;4.47;;;4.23;;
3865;SDS011;1948;53.250;10.412;2023-02-12T18:23:06;4.40;;;4.20;;
3865;SDS011;1948;53.250;10.412;2023-02-12T18:25:34;4.40;;;4.20;;
3865;SDS011;1948;53.250;10.412;2023-02-12T18:28:15;4.10;;;4.00;;
3865;SDS011;1948;53.250;10.412;2023-02-12T18:30:42;4.40;;;4.30;;
3865;SDS011;1948;53.250;10.412;2023-02-12T18:33:09;4.90;;;4.60;;
3865;SDS011;1948;53.250;10.412;2023-02-12T18:35:38;4.93;;;4.60;;